sensor_id;sensor_type;location;lat;lon;timestamp;P1;durP1;ratioP1;P2;durP2;ratioP2
4422;SDS011;2224;49.814;8.650;2023-04-01T00:01:53;2.20;;;1.47;;
4422;SDS011;2224;49.814;8.650;2023-04-01T00:04:18;5.40;;;1.97;;
4422;SDS011;2224;49.814;8.650;2023-04-01T00:06:43;2.57;;;1.43;;
4422;SDS011;2224;49.814;8.650;2023-04-01T00:09:09;3.83;;;1.60;;
4422;SDS011;2224;49.814;8.650;2023-04-01T00:11:34;4.60;;;1.93;;
4422;SDS011;2224;49.814;8.650;2023-04-01T00:13:59;4.93;;;2.50;;
4422;SDS011;2224;49.814;8.650;2023-04-01T00:16:25;2.63;;;1.50;;
4422;SDS011;2224;49.814;8.650;2023-04-01T00:18:50;8.23;;;2.73;;
4422;SDS011;2224;49.814;8.650;2023-04-01T00:21:16;1.90;;;1.23;;
4422;SDS011;2224;49.814;8.650;2023-04-01T00:23:42;5.07;;;1.90;;
4422;SDS011;2224;49.814;8.650;2023-04-01T00:26:08;3.90;;;1.70;;
4422;SDS011;2224;49.814;8.650;2023-04-01T00:28:34;3.37;;;1.50;;
4422;SDS011;2224;49.814;8.650;2023-04-01T00:31:03;3.70;;;1.30;;
4422;SDS011;2224;49.814;8.650;2023-04-01T00:33:32;2.90;;;1.50;;
4422;SDS011;2224;49.814;8.650;2023-04-01T00:36:08;7.50;;;1.97;;
4422;SDS011;2224;49.814;8.650;2023-04-01T00:38:36;2.67;;;1.43;;
4422;SDS011;2224;49.814;8.650;2023-04-01T00:41:02;2.87;;;1.67;;
4422;SDS011;2224;49.814;8.650;2023-04-01T00:43:27;4.13;;;1.60;;
4422;SDS011;2224;49.814;8.650;2023-04-01T00:45:53;6.73;;;1.97;;
4422;SDS011;2224;49.814;8.650;2023-04-01T00:48:28;3.07;;;1.23;;
4422;SDS011;2224;49.814;8.650;2023-04-01T00:51:02;4.53;;;1.70;;
4422;SDS011;2224;49.814;8.650;2023-04-01T00:53:30;4.20;;;1.90;;
4422;SDS011;2224;49.814;8.650;2023-04-01T00:55:59;5.93;;;1.80;;
4422;SDS011;2224;49.814;8.650;2023-04-01T00:58:26;5.90;;;2.20;;
4422;SDS011;2224;49.814;8.650;2023-04-01T01:00:54;2.13;;;1.50;;
4422;SDS011;2224;49.814;8.650;2023-04-01T01:03:20;3.97;;;1.63;;
4422;SDS011;2224;49.814;8.650;2023-04-01T01:08:18;2.93;;;1.40;;
4422;SDS011;2224;49.814;8.650;2023-04-01T01:10:56;2.23;;;1.23;;
4422;SDS011;2224;49.814;8.650;2023-04-01T01:13:32;4.13;;;1.80;;
4422;SDS011;2224;49.814;8.650;2023-04-01T01:16:00;4.33;;;1.60;;
4422;SDS011;2224;49.814;8.650;2023-04-01T01:18:42;2.20;;;1.83;;
4422;SDS011;2224;49.814;8.650;2023-04-01T01:24:41;3.20;;;1.50;;
4422;SDS011;2224;49.814;8.650;2023-04-01T01:27:17;3.47;;;1.90;;
4422;SDS011;2224;49.814;8.650;2023-04-01T01:38:21;4.77;;;1.70;;
4422;SDS011;2224;49.814;8.650;2023-04-01T01:40:49;6.07;;;1.50;;
4422;SDS011;2224;49.814;8.650;2023-04-01T01:43:19;3.00;;;1.80;;
4422;SDS011;2224;49.814;8.650;2023-04-01T01:45:49;2.43;;;1.23;;
4422;SDS011;2224;49.814;8.650;2023-04-01T01:48:17;2.43;;;1.50;;
4422;SDS011;2224;49.814;8.650;2023-04-01T01:50:44;5.37;;;1.87;;
4422;SDS011;2224;49.814;8.650;2023-04-01T01:53:10;7.10;;;1.77;;
4422;SDS011;2224;49.814;8.650;2023-04-01T01:55:37;2.40;;;1.50;;
4422;SDS011;2224;49.814;8.650;2023-04-01T01:58:06;4.63;;;1.67;;
4422;SDS011;2224;49.814;8.650;2023-04-01T02:00:37;4.70;;;1.87;;
4422;SDS011;2224;49.814;8.650;2023-04-01T02:03:02;3.53;;;1.40;;
4422;SDS011;2224;49.814;8.650;2023-04-01T02:05:28;3.47;;;1.70;;
4422;SDS011;2224;49.814;8.650;2023-04-01T02:07:58;4.13;;;1.70;;
4422;SDS011;2224;49.814;8.650;2023-04-01T02:10:37;4.30;;;1.60;;
4422;SDS011;2224;49.814;8.650;2023-04-01T02:13:07;2.90;;;1.83;;
4422;SDS011;2224;49.814;8.650;2023-04-01T02:15:36;3.20;;;1.37;;
4422;SDS011;2224;49.814;8.650;2023-04-01T02:18:02;6.50;;;1.90;;
4422;SDS011;2224;49.814;8.650;2023-04-01T02:20:28;3.03;;;1.77;;
4422;SDS011;2224;49.814;8.650;2023-04-01T02:22:54;3.80;;;1.70;;
4422;SDS011;2224;49.814;8.650;2023-04-01T02:25:29;3.73;;;1.30;;
4422;SDS011;2224;49.814;8.650;2023-04-01T02:27:56;2.50;;;1.40;;
4422;SDS011;2224;49.814;8.650;2023-04-01T02:30:22;2.30;;;1.60;;
4422;SDS011;2224;49.814;8.650;2023-04-01T02:32:48;3.00;;;1.40;;
4422;SDS011;2224;49.814;8.650;2023-04-01T02:35:14;7.40;;;1.67;;
4422;SDS011;2224;49.814;8.650;2023-04-01T02:37:41;3.27;;;1.50;;
4422;SDS011;2224;49.814;8.650;2023-04-01T02:40:07;2.23;;;1.20;;
4422;SDS011;2224;49.814;8.650;2023-04-01T02:42:34;2.07;;;1.67;;
4422;SDS011;2224;49.814;8.650;2023-04-01T02:45:00;4.90;;;1.57;;
4422;SDS011;2224;49.814;8.650;2023-04-01T02:47:25;3.87;;;1.53;;
4422;SDS011;2224;49.814;8.650;2023-04-01T02:49:50;3.03;;;1.80;;
4422;SDS011;2224;49.814;8.650;2023-04-01T02:52:16;3.80;;;1.87;;
4422;SDS011;2224;49.814;8.650;2023-04-01T02:54:41;8.60;;;3.13;;
4422;SDS011;2224;49.814;8.650;2023-04-01T02:57:06;3.40;;;1.60;;
4422;SDS011;2224;49.814;8.650;2023-04-01T02:59:32;2.00;;;1.57;;
4422;SDS011;2224;49.814;8.650;2023-04-01T03:01:57;4.17;;;1.70;;
4422;SDS011;2224;49.814;8.650;2023-04-01T03:04:22;2.00;;;1.60;;
4422;SDS011;2224;49.814;8.650;2023-04-01T03:06:48;3.67;;;2.00;;
4422;SDS011;2224;49.814;8.650;2023-04-01T03:09:13;3.70;;;1.60;;
4422;SDS011;2224;49.814;8.650;2023-04-01T03:11:39;4.13;;;1.73;;
4422;SDS011;2224;49.814;8.650;2023-04-01T03:14:05;3.93;;;1.70;;
4422;SDS011;2224;49.814;8.650;2023-04-01T03:16:31;5.37;;;1.40;;
4422;SDS011;2224;49.814;8.650;2023-04-01T03:18:57;7.57;;;1.77;;
4422;SDS011;2224;49.814;8.650;2023-04-01T03:21:24;1.20;;;1.10;;
4422;SDS011;2224;49.814;8.650;2023-04-01T03:23:50;4.87;;;1.63;;
4422;SDS011;2224;49.814;8.650;2023-04-01T03:26:15;4.13;;;1.60;;
4422;SDS011;2224;49.814;8.650;2023-04-01T03:28:41;2.37;;;1.40;;
4422;SDS011;2224;49.814;8.650;2023-04-01T03:31:06;3.33;;;1.57;;
4422;SDS011;2224;49.814;8.650;2023-04-01T03:33:32;2.87;;;1.43;;
4422;SDS011;2224;49.814;8.650;2023-04-01T03:35:57;2.20;;;1.30;;
4422;SDS011;2224;49.814;8.650;2023-04-01T03:38:22;4.03;;;1.80;;
4422;SDS011;2224;49.814;8.650;2023-04-01T03:40:48;3.63;;;1.50;;
4422;SDS011;2224;49.814;8.650;2023-04-01T03:43:13;4.57;;;1.70;;
4422;SDS011;2224;49.814;8.650;2023-04-01T03:45:45;2.40;;;1.33;;
4422;SDS011;2224;49.814;8.650;2023-04-01T03:48:12;2.77;;;1.67;;
4422;SDS011;2224;49.814;8.650;2023-04-01T03:50:37;3.43;;;1.30;;
4422;SDS011;2224;49.814;8.650;2023-04-01T03:53:03;3.00;;;1.40;;
4422;SDS011;2224;49.814;8.650;2023-04-01T03:55:28;1.87;;;1.40;;
4422;SDS011;2224;49.814;8.650;2023-04-01T03:57:53;1.80;;;1.10;;
4422;SDS011;2224;49.814;8.650;2023-04-01T04:00:19;5.37;;;1.73;;
4422;SDS011;2224;49.814;8.650;2023-04-01T04:02:44;3.27;;;1.43;;
4422;SDS011;2224;49.814;8.650;2023-04-01T04:05:09;2.50;;;1.43;;
4422;SDS011;2224;49.814;8.650;2023-04-01T04:07:35;4.00;;;1.50;;
4422;SDS011;2224;49.814;8.650;2023-04-01T04:10:00;1.57;;;1.30;;
4422;SDS011;2224;49.814;8.650;2023-04-01T04:12:26;2.60;;;1.40;;
4422;SDS011;2224;49.814;8.650;2023-04-01T04:14:51;3.23;;;1.10;;
4422;SDS011;2224;49.814;8.650;2023-04-01T04:17:16;2.10;;;1.27;;
4422;SDS011;2224;49.814;8.650;2023-04-01T04:19:42;2.47;;;1.40;;
4422;SDS011;2224;49.814;8.650;2023-04-01T04:22:07;5.03;;;1.80;;
4422;SDS011;2224;49.814;8.650;2023-04-01T04:24:36;3.17;;;1.47;;
4422;SDS011;2224;49.814;8.650;2023-04-01T04:27:01;3.77;;;1.40;;
4422;SDS011;2224;49.814;8.650;2023-04-01T04:29:27;2.60;;;1.50;;
4422;SDS011;2224;49.814;8.650;2023-04-01T04:31:52;2.63;;;1.23;;
4422;SDS011;2224;49.814;8.650;2023-04-01T04:34:18;5.50;;;1.73;;
4422;SDS011;2224;49.814;8.650;2023-04-01T04:36:43;1.70;;;1.47;;
4422;SDS011;2224;49.814;8.650;2023-04-01T04:39:10;3.20;;;1.30;;
4422;SDS011;2224;49.814;8.650;2023-04-01T04:41:36;1.37;;;1.00;;
4422;SDS011;2224;49.814;8.650;2023-04-01T04:44:02;3.27;;;2.00;;
4422;SDS011;2224;49.814;8.650;2023-04-01T04:46:27;3.60;;;1.60;;
4422;SDS011;2224;49.814;8.650;2023-04-01T04:48:53;3.43;;;1.57;;
4422;SDS011;2224;49.814;8.650;2023-04-01T04:51:18;2.80;;;1.20;;
4422;SDS011;2224;49.814;8.650;2023-04-01T04:53:45;3.63;;;1.13;;
4422;SDS011;2224;49.814;8.650;2023-04-01T04:56:11;4.33;;;1.40;;
4422;SDS011;2224;49.814;8.650;2023-04-01T04:58:37;6.93;;;1.50;;
4422;SDS011;2224;49.814;8.650;2023-04-01T05:01:09;2.03;;;0.93;;
4422;SDS011;2224;49.814;8.650;2023-04-01T05:03:36;2.17;;;1.20;;
4422;SDS011;2224;49.814;8.650;2023-04-01T05:06:01;4.60;;;1.30;;
4422;SDS011;2224;49.814;8.650;2023-04-01T05:08:27;1.80;;;1.30;;
4422;SDS011;2224;49.814;8.650;2023-04-01T05:10:52;6.10;;;1.50;;
4422;SDS011;2224;49.814;8.650;2023-04-01T05:13:17;4.13;;;1.60;;
4422;SDS011;2224;49.814;8.650;2023-04-01T05:15:43;3.13;;;1.40;;
4422;SDS011;2224;49.814;8.650;2023-04-01T05:18:08;4.10;;;1.27;;
4422;SDS011;2224;49.814;8.650;2023-04-01T05:20:34;3.33;;;2.00;;
4422;SDS011;2224;49.814;8.650;2023-04-01T05:22:59;1.90;;;1.20;;
4422;SDS011;2224;49.814;8.650;2023-04-01T05:25:25;2.20;;;1.00;;
4422;SDS011;2224;49.814;8.650;2023-04-01T05:27:50;3.40;;;1.40;;
4422;SDS011;2224;49.814;8.650;2023-04-01T05:30:16;2.03;;;1.10;;
4422;SDS011;2224;49.814;8.650;2023-04-01T05:32:41;2.93;;;1.30;;
4422;SDS011;2224;49.814;8.650;2023-04-01T05:35:08;3.57;;;1.43;;
4422;SDS011;2224;49.814;8.650;2023-04-01T05:37:34;2.53;;;1.17;;
4422;SDS011;2224;49.814;8.650;2023-04-01T05:40:00;3.70;;;1.50;;
4422;SDS011;2224;49.814;8.650;2023-04-01T05:42:25;2.70;;;1.50;;
4422;SDS011;2224;49.814;8.650;2023-04-01T05:44:51;2.00;;;1.20;;
4422;SDS011;2224;49.814;8.650;2023-04-01T05:47:16;4.33;;;1.20;;
4422;SDS011;2224;49.814;8.650;2023-04-01T05:49:41;1.80;;;1.07;;
4422;SDS011;2224;49.814;8.650;2023-04-01T05:52:06;3.00;;;1.67;;
4422;SDS011;2224;49.814;8.650;2023-04-01T05:54:32;2.10;;;1.20;;
4422;SDS011;2224;49.814;8.650;2023-04-01T05:56:58;2.60;;;1.13;;
4422;SDS011;2224;49.814;8.650;2023-04-01T05:59:23;3.00;;;1.30;;
4422;SDS011;2224;49.814;8.650;2023-04-01T06:01:48;1.10;;;1.00;;
4422;SDS011;2224;49.814;8.650;2023-04-01T06:04:14;3.73;;;1.20;;
4422;SDS011;2224;49.814;8.650;2023-04-01T06:06:41;3.23;;;1.17;;
4422;SDS011;2224;49.814;8.650;2023-04-01T06:09:21;1.60;;;0.93;;
4422;SDS011;2224;49.814;8.650;2023-04-01T06:11:55;3.90;;;0.87;;
4422;SDS011;2224;49.814;8.650;2023-04-01T06:31:10;1.47;;;1.00;;
4422;SDS011;2224;49.814;8.650;2023-04-01T06:33:46;3.47;;;1.37;;
4422;SDS011;2224;49.814;8.650;2023-04-01T06:49:39;1.10;;;1.00;;
4422;SDS011;2224;49.814;8.650;2023-04-01T06:52:16;4.87;;;1.13;;
4422;SDS011;2224;49.814;8.650;2023-04-01T06:54:48;1.73;;;1.00;;
4422;SDS011;2224;49.814;8.650;2023-04-01T06:59:51;1.03;;;0.93;;
4422;SDS011;2224;49.814;8.650;2023-04-01T07:02:25;1.73;;;0.90;;
4422;SDS011;2224;49.814;8.650;2023-04-01T07:04:55;0.93;;;0.90;;
4422;SDS011;2224;49.814;8.650;2023-04-01T07:10:09;2.60;;;1.03;;
4422;SDS011;2224;49.814;8.650;2023-04-01T07:12:56;2.83;;;1.00;;
4422;SDS011;2224;49.814;8.650;2023-04-01T07:15:25;2.50;;;0.90;;
4422;SDS011;2224;49.814;8.650;2023-04-01T07:18:03;1.03;;;0.90;;
4422;SDS011;2224;49.814;8.650;2023-04-01T07:20:32;1.03;;;0.97;;
4422;SDS011;2224;49.814;8.650;2023-04-01T07:23:02;0.87;;;0.87;;
4422;SDS011;2224;49.814;8.650;2023-04-01T07:25:37;1.90;;;1.10;;
4422;SDS011;2224;49.814;8.650;2023-04-01T07:28:15;1.90;;;1.00;;
4422;SDS011;2224;49.814;8.650;2023-04-01T07:33:44;2.50;;;1.07;;
4422;SDS011;2224;49.814;8.650;2023-04-01T07:39:47;6.53;;;1.10;;
4422;SDS011;2224;49.814;8.650;2023-04-01T07:53:36;1.37;;;0.87;;
4422;SDS011;2224;49.814;8.650;2023-04-01T07:59:21;1.60;;;1.17;;
4422;SDS011;2224;49.814;8.650;2023-04-01T08:02:21;2.40;;;1.00;;
4422;SDS011;2224;49.814;8.650;2023-04-01T08:07:27;2.83;;;1.10;;
4422;SDS011;2224;49.814;8.650;2023-04-01T08:12:41;1.03;;;0.93;;
4422;SDS011;2224;49.814;8.650;2023-04-01T08:18:08;1.00;;;0.70;;
4422;SDS011;2224;49.814;8.650;2023-04-01T08:20:44;0.90;;;0.80;;
4422;SDS011;2224;49.814;8.650;2023-04-01T08:23:15;1.70;;;0.97;;
4422;SDS011;2224;49.814;8.650;2023-04-01T08:25:56;1.10;;;1.03;;
4422;SDS011;2224;49.814;8.650;2023-04-01T08:28:27;2.00;;;1.10;;
4422;SDS011;2224;49.814;8.650;2023-04-01T08:31:03;0.80;;;0.60;;
4422;SDS011;2224;49.814;8.650;2023-04-01T08:33:30;1.40;;;0.90;;
4422;SDS011;2224;49.814;8.650;2023-04-01T08:36:14;1.70;;;1.10;;
4422;SDS011;2224;49.814;8.650;2023-04-01T08:38:55;0.83;;;0.83;;
4422;SDS011;2224;49.814;8.650;2023-04-01T08:47:18;2.37;;;0.80;;
4422;SDS011;2224;49.814;8.650;2023-04-01T08:53:11;2.10;;;1.07;;
4422;SDS011;2224;49.814;8.650;2023-04-01T08:55:56;1.83;;;0.87;;
4422;SDS011;2224;49.814;8.650;2023-04-01T09:01:14;2.50;;;0.90;;
4422;SDS011;2224;49.814;8.650;2023-04-01T09:04:05;1.70;;;0.90;;
4422;SDS011;2224;49.814;8.650;2023-04-01T09:09:53;1.03;;;0.90;;
4422;SDS011;2224;49.814;8.650;2023-04-01T09:12:49;1.50;;;0.80;;
4422;SDS011;2224;49.814;8.650;2023-04-01T09:25:51;1.20;;;1.10;;
4422;SDS011;2224;49.814;8.650;2023-04-01T09:28:20;1.17;;;0.90;;
4422;SDS011;2224;49.814;8.650;2023-04-01T09:31:04;1.30;;;0.77;;
4422;SDS011;2224;49.814;8.650;2023-04-01T09:40:16;3.57;;;1.23;;
4422;SDS011;2224;49.814;8.650;2023-04-01T09:45:37;1.33;;;0.93;;
4422;SDS011;2224;49.814;8.650;2023-04-01T10:22:15;1.27;;;1.20;;
4422;SDS011;2224;49.814;8.650;2023-04-01T10:24:45;2.13;;;1.30;;
4422;SDS011;2224;49.814;8.650;2023-04-01T10:27:29;3.63;;;1.50;;
4422;SDS011;2224;49.814;8.650;2023-04-01T10:39:22;1.57;;;1.47;;
4422;SDS011;2224;49.814;8.650;2023-04-01T10:42:11;1.00;;;1.00;;
4422;SDS011;2224;49.814;8.650;2023-04-01T10:53:42;1.00;;;1.00;;
4422;SDS011;2224;49.814;8.650;2023-04-01T10:59:07;1.53;;;1.30;;
4422;SDS011;2224;49.814;8.650;2023-04-01T11:07:17;1.70;;;1.30;;
4422;SDS011;2224;49.814;8.650;2023-04-01T11:35:22;2.33;;;1.60;;
4422;SDS011;2224;49.814;8.650;2023-04-01T11:41:22;1.30;;;1.20;;
4422;SDS011;2224;49.814;8.650;2023-04-01T11:44:07;1.60;;;1.50;;
4422;SDS011;2224;49.814;8.650;2023-04-01T11:52:58;1.60;;;1.50;;
4422;SDS011;2224;49.814;8.650;2023-04-01T12:06:42;2.90;;;2.00;;
4422;SDS011;2224;49.814;8.650;2023-04-01T12:17:46;2.00;;;1.80;;
4422;SDS011;2224;49.814;8.650;2023-04-01T12:31:53;1.90;;;1.60;;
4422;SDS011;2224;49.814;8.650;2023-04-01T12:45:40;1.30;;;1.20;;
4422;SDS011;2224;49.814;8.650;2023-04-01T12:59:53;2.83;;;2.63;;
4422;SDS011;2224;49.814;8.650;2023-04-01T13:05:20;1.93;;;1.83;;
4422;SDS011;2224;49.814;8.650;2023-04-01T13:41:05;2.23;;;2.07;;
4422;SDS011;2224;49.814;8.650;2023-04-01T13:43:25;1.67;;;1.57;;
4422;SDS011;2224;49.814;8.650;2023-04-01T13:57:03;2.67;;;1.70;;
4422;SDS011;2224;49.814;8.650;2023-04-01T14:02:38;1.20;;;1.10;;
4422;SDS011;2224;49.814;8.650;2023-04-01T14:08:20;1.10;;;1.00;;
4422;SDS011;2224;49.814;8.650;2023-04-01T14:11:06;3.17;;;1.00;;
4422;SDS011;2224;49.814;8.650;2023-04-01T14:19:22;1.53;;;1.43;;
4422;SDS011;2224;49.814;8.650;2023-04-01T14:25:30;2.60;;;1.50;;
4422;SDS011;2224;49.814;8.650;2023-04-01T14:34:18;1.50;;;1.40;;
4422;SDS011;2224;49.814;8.650;2023-04-01T14:43:09;1.67;;;1.57;;
4422;SDS011;2224;49.814;8.650;2023-04-01T14:50:45;1.70;;;1.60;;
4422;SDS011;2224;49.814;8.650;2023-04-01T14:53:16;2.03;;;1.80;;
4422;SDS011;2224;49.814;8.650;2023-04-01T14:55:51;1.40;;;1.30;;
4422;SDS011;2224;49.814;8.650;2023-04-01T14:58:23;1.30;;;1.20;;
4422;SDS011;2224;49.814;8.650;2023-04-01T15:20:16;2.17;;;1.50;;
4422;SDS011;2224;49.814;8.650;2023-04-01T15:35:00;2.47;;;1.70;;
4422;SDS011;2224;49.814;8.650;2023-04-01T15:43:02;1.60;;;1.50;;
4422;SDS011;2224;49.814;8.650;2023-04-01T15:45:56;1.50;;;1.40;;
4422;SDS011;2224;49.814;8.650;2023-04-01T15:48:31;1.30;;;1.20;;
4422;SDS011;2224;49.814;8.650;2023-04-01T15:51:22;2.40;;;2.23;;
4422;SDS011;2224;49.814;8.650;2023-04-01T16:02:23;3.13;;;1.30;;
4422;SDS011;2224;49.814;8.650;2023-04-01T16:07:47;1.30;;;1.20;;
4422;SDS011;2224;49.814;8.650;2023-04-01T16:10:45;4.60;;;1.17;;
4422;SDS011;2224;49.814;8.650;2023-04-01T16:16:11;1.53;;;1.00;;
4422;SDS011;2224;49.814;8.650;2023-04-01T16:21:46;2.83;;;0.90;;
4422;SDS011;2224;49.814;8.650;2023-04-01T16:24:17;0.83;;;0.67;;
4422;SDS011;2224;49.814;8.650;2023-04-01T16:27:13;1.77;;;0.80;;
4422;SDS011;2224;49.814;8.650;2023-04-01T16:29:50;3.73;;;0.90;;
4422;SDS011;2224;49.814;8.650;2023-04-01T16:37:44;0.60;;;0.60;;
4422;SDS011;2224;49.814;8.650;2023-04-01T16:43:13;1.30;;;1.00;;
4422;SDS011;2224;49.814;8.650;2023-04-01T16:48:54;2.17;;;0.83;;
4422;SDS011;2224;49.814;8.650;2023-04-01T16:51:30;1.20;;;1.10;;
4422;SDS011;2224;49.814;8.650;2023-04-01T16:54:04;0.90;;;0.90;;
4422;SDS011;2224;49.814;8.650;2023-04-01T16:59:22;0.83;;;0.80;;
4422;SDS011;2224;49.814;8.650;2023-04-01T17:01:57;1.77;;;0.80;;
4422;SDS011;2224;49.814;8.650;2023-04-01T17:04:43;1.87;;;1.00;;
4422;SDS011;2224;49.814;8.650;2023-04-01T17:07:25;1.67;;;1.07;;
4422;SDS011;2224;49.814;8.650;2023-04-01T17:13:04;1.10;;;1.00;;
4422;SDS011;2224;49.814;8.650;2023-04-01T17:21:09;0.80;;;0.80;;
4422;SDS011;2224;49.814;8.650;2023-04-01T17:26:50;0.90;;;0.83;;
4422;SDS011;2224;49.814;8.650;2023-04-01T17:29:43;1.17;;;1.07;;
4422;SDS011;2224;49.814;8.650;2023-04-01T17:32:11;1.03;;;0.93;;
4422;SDS011;2224;49.814;8.650;2023-04-01T17:35:02;0.97;;;0.97;;
4422;SDS011;2224;49.814;8.650;2023-04-01T17:37:39;1.30;;;1.07;;
4422;SDS011;2224;49.814;8.650;2023-04-01T17:45:38;1.43;;;0.90;;
4422;SDS011;2224;49.814;8.650;2023-04-01T17:51:13;1.10;;;1.00;;
4422;SDS011;2224;49.814;8.650;2023-04-01T17:59:36;1.33;;;1.00;;
4422;SDS011;2224;49.814;8.650;2023-04-01T18:02:25;1.20;;;1.00;;
4422;SDS011;2224;49.814;8.650;2023-04-01T18:05:30;1.70;;;1.40;;
4422;SDS011;2224;49.814;8.650;2023-04-01T18:13:44;1.00;;;0.90;;
4422;SDS011;2224;49.814;8.650;2023-04-01T18:22:10;2.20;;;1.07;;
4422;SDS011;2224;49.814;8.650;2023-04-01T18:27:55;1.30;;;1.20;;
4422;SDS011;2224;49.814;8.650;2023-04-01T18:30:30;1.97;;;1.30;;
4422;SDS011;2224;49.814;8.650;2023-04-01T18:32:58;3.47;;;1.20;;
4422;SDS011;2224;49.814;8.650;2023-04-01T18:38:33;1.90;;;1.00;;
4422;SDS011;2224;49.814;8.650;2023-04-01T18:41:10;2.60;;;1.10;;
4422;SDS011;2224;49.814;8.650;2023-04-01T18:49:33;1.30;;;1.00;;
4422;SDS011;2224;49.814;8.650;2023-04-01T18:57:39;1.30;;;1.10;;
4422;SDS011;2224;49.814;8.650;2023-04-01T19:00:22;5.30;;;1.60;;
4422;SDS011;2224;49.814;8.650;2023-04-01T19:05:40;1.93;;;1.30;;
4422;SDS011;2224;49.814;8.650;2023-04-01T19:13:51;1.97;;;1.10;;
4422;SDS011;2224;49.814;8.650;2023-04-01T19:20:00;1.30;;;1.07;;
4422;SDS011;2224;49.814;8.650;2023-04-01T19:33:09;2.40;;;1.53;;
4422;SDS011;2224;49.814;8.650;2023-04-01T19:36:00;2.50;;;1.40;;
4422;SDS011;2224;49.814;8.650;2023-04-01T19:57:24;2.03;;;1.20;;
4422;SDS011;2224;49.814;8.650;2023-04-01T20:02:35;2.40;;;1.70;;
4422;SDS011;2224;49.814;8.650;2023-04-01T20:16:03;2.93;;;1.53;;
4422;SDS011;2224;49.814;8.650;2023-04-01T20:23:55;1.53;;;1.30;;
4422;SDS011;2224;49.814;8.650;2023-04-01T20:26:33;3.20;;;1.43;;
4422;SDS011;2224;49.814;8.650;2023-04-01T20:32:11;1.70;;;1.60;;
4422;SDS011;2224;49.814;8.650;2023-04-01T20:42:51;1.50;;;1.40;;
4422;SDS011;2224;49.814;8.650;2023-04-01T20:50:50;1.77;;;1.40;;
4422;SDS011;2224;49.814;8.650;2023-04-01T20:53:20;1.30;;;1.20;;
4422;SDS011;2224;49.814;8.650;2023-04-01T20:56:10;1.63;;;1.53;;
4422;SDS011;2224;49.814;8.650;2023-04-01T21:01:32;1.67;;;1.40;;
4422;SDS011;2224;49.814;8.650;2023-04-01T21:06:49;3.73;;;1.60;;
4422;SDS011;2224;49.814;8.650;2023-04-01T21:12:05;1.67;;;1.20;;
4422;SDS011;2224;49.814;8.650;2023-04-01T21:15:07;2.00;;;1.80;;
4422;SDS011;2224;49.814;8.650;2023-04-01T21:23:17;2.07;;;1.37;;
4422;SDS011;2224;49.814;8.650;2023-04-01T21:42:49;1.97;;;1.60;;
4422;SDS011;2224;49.814;8.650;2023-04-01T21:50:47;1.90;;;1.63;;
4422;SDS011;2224;49.814;8.650;2023-04-01T22:06:46;2.47;;;1.70;;
4422;SDS011;2224;49.814;8.650;2023-04-01T22:09:18;2.67;;;2.07;;
4422;SDS011;2224;49.814;8.650;2023-04-01T22:11:55;1.67;;;1.57;;
4422;SDS011;2224;49.814;8.650;2023-04-01T22:19:43;3.67;;;2.37;;
4422;SDS011;2224;49.814;8.650;2023-04-01T22:22:19;1.67;;;1.57;;
4422;SDS011;2224;49.814;8.650;2023-04-01T22:25:10;2.73;;;2.30;;
4422;SDS011;2224;49.814;8.650;2023-04-01T22:27:41;2.20;;;2.00;;
4422;SDS011;2224;49.814;8.650;2023-04-01T22:30:31;2.43;;;2.23;;
4422;SDS011;2224;49.814;8.650;2023-04-01T22:36:13;2.20;;;2.00;;
4422;SDS011;2224;49.814;8.650;2023-04-01T22:41:43;3.97;;;2.80;;
4422;SDS011;2224;49.814;8.650;2023-04-01T22:44:42;3.40;;;2.77;;
4422;SDS011;2224;49.814;8.650;2023-04-01T22:50:22;2.27;;;2.07;;
4422;SDS011;2224;49.814;8.650;2023-04-01T22:52:56;3.07;;;2.33;;
4422;SDS011;2224;49.814;8.650;2023-04-01T22:55:29;3.80;;;2.57;;
4422;SDS011;2224;49.814;8.650;2023-04-01T23:00:56;6.13;;;3.07;;
4422;SDS011;2224;49.814;8.650;2023-04-01T23:05:57;3.43;;;3.13;;
4422;SDS011;2224;49.814;8.650;2023-04-01T23:11:15;4.70;;;3.20;;
4422;SDS011;2224;49.814;8.650;2023-04-01T23:13:44;3.87;;;3.57;;
4422;SDS011;2224;49.814;8.650;2023-04-01T23:16:17;3.87;;;3.47;;
4422;SDS011;2224;49.814;8.650;2023-04-01T23:18:55;5.20;;;3.70;;
4422;SDS011;2224;49.814;8.650;2023-04-01T23:24:10;4.60;;;4.20;;
4422;SDS011;2224;49.814;8.650;2023-04-01T23:29:17;4.90;;;4.50;;
4422;SDS011;2224;49.814;8.650;2023-04-01T23:31:47;4.63;;;4.13;;
4422;SDS011;2224;49.814;8.650;2023-04-01T23:34:21;4.97;;;4.47;;
4422;SDS011;2224;49.814;8.650;2023-04-01T23:36:50;5.87;;;4.40;;
4422;SDS011;2224;49.814;8.650;2023-04-01T23:39:40;5.50;;;5.00;;
4422;SDS011;2224;49.814;8.650;2023-04-01T23:45:04;8.10;;;6.97;;
4422;SDS011;2224;49.814;8.650;2023-04-01T23:47:39;8.73;;;6.20;;
4422;SDS011;2224;49.814;8.650;2023-04-01T23:50:16;7.80;;;6.43;;
4422;SDS011;2224;49.814;8.650;2023-04-01T23:52:43;6.63;;;6.03;;
